sensor_id;sensor_type;location;lat;lon;timestamp;P1;durP1;ratioP1;P2;durP2;ratioP2
48203;SDS011;33994;50.998;5.864;2024-01-30T00:01:36;12.73;;;7.90;;
48203;SDS011;33994;50.998;5.864;2024-01-30T00:04:40;12.02;;;8.10;;
48203;SDS011;33994;50.998;5.864;2024-01-30T00:07:44;12.68;;;7.63;;
48203;SDS011;33994;50.998;5.864;2024-01-30T00:10:47;15.93;;;8.85;;
48203;SDS011;33994;50.998;5.864;2024-01-30T00:13:50;11.95;;;7.78;;
48203;SDS011;33994;50.998;5.864;2024-01-30T00:16:53;12.30;;;7.25;;
48203;SDS011;33994;50.998;5.864;2024-01-30T00:19:57;12.02;;;6.75;;
48203;SDS011;33994;50.998;5.864;2024-01-30T00:23:01;11.23;;;7.57;;
48203;SDS011;33994;50.998;5.864;2024-01-30T00:26:04;13.13;;;7.65;;
48203;SDS011;33994;50.998;5.864;2024-01-30T00:29:07;12.98;;;7.60;;
48203;SDS011;33994;50.998;5.864;2024-01-30T00:32:10;13.35;;;7.10;;
48203;SDS011;33994;50.998;5.864;2024-01-30T00:35:15;13.55;;;7.57;;
48203;SDS011;33994;50.998;5.864;2024-01-30T00:38:18;13.48;;;6.85;;
48203;SDS011;33994;50.998;5.864;2024-01-30T00:41:21;13.20;;;7.75;;
48203;SDS011;33994;50.998;5.864;2024-01-30T00:44:24;14.93;;;7.97;;
48203;SDS011;33994;50.998;5.864;2024-01-30T00:47:27;13.10;;;6.90;;
48203;SDS011;33994;50.998;5.864;2024-01-30T00:50:32;13.30;;;6.95;;
48203;SDS011;33994;50.998;5.864;2024-01-30T00:53:35;15.57;;;7.80;;
48203;SDS011;33994;50.998;5.864;2024-01-30T00:56:38;11.65;;;7.57;;
48203;SDS011;33994;50.998;5.864;2024-01-30T00:59:41;14.93;;;7.68;;
48203;SDS011;33994;50.998;5.864;2024-01-30T01:02:44;11.75;;;7.28;;
48203;SDS011;33994;50.998;5.864;2024-01-30T01:05:49;10.25;;;6.63;;
48203;SDS011;33994;50.998;5.864;2024-01-30T01:08:53;13.38;;;7.40;;
48203;SDS011;33994;50.998;5.864;2024-01-30T01:11:56;11.48;;;7.65;;
48203;SDS011;33994;50.998;5.864;2024-01-30T01:14:59;11.90;;;6.82;;
48203;SDS011;33994;50.998;5.864;2024-01-30T01:18:02;15.25;;;7.13;;
48203;SDS011;33994;50.998;5.864;2024-01-30T01:21:07;10.48;;;6.70;;
48203;SDS011;33994;50.998;5.864;2024-01-30T01:24:10;12.18;;;7.18;;
48203;SDS011;33994;50.998;5.864;2024-01-30T01:27:14;11.13;;;6.90;;
48203;SDS011;33994;50.998;5.864;2024-01-30T01:30:17;11.90;;;6.35;;
48203;SDS011;33994;50.998;5.864;2024-01-30T01:33:21;13.27;;;6.93;;
48203;SDS011;33994;50.998;5.864;2024-01-30T01:36:25;11.52;;;6.57;;
48203;SDS011;33994;50.998;5.864;2024-01-30T01:39:29;8.85;;;6.13;;
48203;SDS011;33994;50.998;5.864;2024-01-30T01:42:32;10.20;;;5.90;;
48203;SDS011;33994;50.998;5.864;2024-01-30T01:45:35;11.93;;;6.50;;
48203;SDS011;33994;50.998;5.864;2024-01-30T01:48:38;10.40;;;6.03;;
48203;SDS011;33994;50.998;5.864;2024-01-30T01:51:43;12.95;;;6.57;;
48203;SDS011;33994;50.998;5.864;2024-01-30T01:54:48;10.65;;;5.85;;
48203;SDS011;33994;50.998;5.864;2024-01-30T01:57:52;11.57;;;5.45;;
48203;SDS011;33994;50.998;5.864;2024-01-30T02:00:56;8.10;;;5.47;;
48203;SDS011;33994;50.998;5.864;2024-01-30T02:04:00;9.73;;;5.32;;
48203;SDS011;33994;50.998;5.864;2024-01-30T02:07:05;10.38;;;5.65;;
48203;SDS011;33994;50.998;5.864;2024-01-30T02:10:08;11.98;;;5.95;;
48203;SDS011;33994;50.998;5.864;2024-01-30T02:13:12;9.23;;;5.32;;
48203;SDS011;33994;50.998;5.864;2024-01-30T02:16:15;10.15;;;5.55;;
48203;SDS011;33994;50.998;5.864;2024-01-30T02:19:18;8.65;;;5.38;;
48203;SDS011;33994;50.998;5.864;2024-01-30T02:22:22;10.20;;;5.35;;
48203;SDS011;33994;50.998;5.864;2024-01-30T02:25:30;10.68;;;5.80;;
48203;SDS011;33994;50.998;5.864;2024-01-30T02:28:34;8.67;;;5.33;;
48203;SDS011;33994;50.998;5.864;2024-01-30T02:31:37;6.63;;;4.93;;
48203;SDS011;33994;50.998;5.864;2024-01-30T02:34:40;11.57;;;5.63;;
48203;SDS011;33994;50.998;5.864;2024-01-30T02:37:45;9.90;;;5.63;;
48203;SDS011;33994;50.998;5.864;2024-01-30T02:40:48;7.85;;;5.20;;
48203;SDS011;33994;50.998;5.864;2024-01-30T02:43:51;9.25;;;5.43;;
48203;SDS011;33994;50.998;5.864;2024-01-30T02:46:54;10.75;;;4.65;;
48203;SDS011;33994;50.998;5.864;2024-01-30T02:49:57;6.53;;;4.50;;
48203;SDS011;33994;50.998;5.864;2024-01-30T02:53:02;7.35;;;4.47;;
48203;SDS011;33994;50.998;5.864;2024-01-30T02:56:05;11.82;;;5.35;;
48203;SDS011;33994;50.998;5.864;2024-01-30T02:59:09;9.95;;;4.90;;
48203;SDS011;33994;50.998;5.864;2024-01-30T03:02:12;7.30;;;4.60;;
48203;SDS011;33994;50.998;5.864;2024-01-30T03:05:16;11.77;;;5.22;;
48203;SDS011;33994;50.998;5.864;2024-01-30T03:08:20;10.40;;;4.30;;
48203;SDS011;33994;50.998;5.864;2024-01-30T03:11:23;9.85;;;4.72;;
48203;SDS011;33994;50.998;5.864;2024-01-30T03:14:26;6.30;;;4.28;;
48203;SDS011;33994;50.998;5.864;2024-01-30T03:17:30;7.75;;;4.38;;
48203;SDS011;33994;50.998;5.864;2024-01-30T03:20:33;9.23;;;4.75;;
48203;SDS011;33994;50.998;5.864;2024-01-30T03:23:37;7.10;;;4.75;;
48203;SDS011;33994;50.998;5.864;2024-01-30T03:26:40;8.30;;;4.90;;
48203;SDS011;33994;50.998;5.864;2024-01-30T03:29:44;7.68;;;4.50;;
48203;SDS011;33994;50.998;5.864;2024-01-30T03:32:47;7.93;;;4.40;;
48203;SDS011;33994;50.998;5.864;2024-01-30T03:35:50;8.57;;;4.82;;
48203;SDS011;33994;50.998;5.864;2024-01-30T03:38:55;6.57;;;4.60;;
48203;SDS011;33994;50.998;5.864;2024-01-30T03:41:58;11.63;;;4.93;;
48203;SDS011;33994;50.998;5.864;2024-01-30T03:45:01;8.93;;;4.85;;
48203;SDS011;33994;50.998;5.864;2024-01-30T03:48:05;6.95;;;4.38;;
48203;SDS011;33994;50.998;5.864;2024-01-30T03:51:09;10.68;;;4.97;;
48203;SDS011;33994;50.998;5.864;2024-01-30T03:54:14;8.90;;;5.03;;
48203;SDS011;33994;50.998;5.864;2024-01-30T03:57:17;7.25;;;4.30;;
48203;SDS011;33994;50.998;5.864;2024-01-30T04:00:20;6.95;;;4.40;;
48203;SDS011;33994;50.998;5.864;2024-01-30T04:03:23;9.43;;;5.00;;
48203;SDS011;33994;50.998;5.864;2024-01-30T04:06:27;8.75;;;4.90;;
48203;SDS011;33994;50.998;5.864;2024-01-30T04:09:31;7.43;;;4.95;;
48203;SDS011;33994;50.998;5.864;2024-01-30T04:12:35;8.93;;;4.65;;
48203;SDS011;33994;50.998;5.864;2024-01-30T04:15:38;6.75;;;4.60;;
48203;SDS011;33994;50.998;5.864;2024-01-30T04:18:41;7.85;;;4.43;;
48203;SDS011;33994;50.998;5.864;2024-01-30T04:21:44;8.15;;;5.00;;
48203;SDS011;33994;50.998;5.864;2024-01-30T04:24:49;7.50;;;4.60;;
48203;SDS011;33994;50.998;5.864;2024-01-30T04:27:52;8.20;;;4.63;;
48203;SDS011;33994;50.998;5.864;2024-01-30T04:30:56;8.00;;;4.50;;
48203;SDS011;33994;50.998;5.864;2024-01-30T04:33:59;5.95;;;4.03;;
48203;SDS011;33994;50.998;5.864;2024-01-30T04:37:02;10.75;;;4.45;;
48203;SDS011;33994;50.998;5.864;2024-01-30T04:40:07;6.88;;;4.72;;
48203;SDS011;33994;50.998;5.864;2024-01-30T04:43:10;8.18;;;4.70;;
48203;SDS011;33994;50.998;5.864;2024-01-30T04:46:14;6.70;;;4.35;;
48203;SDS011;33994;50.998;5.864;2024-01-30T04:49:17;7.85;;;4.70;;
48203;SDS011;33994;50.998;5.864;2024-01-30T04:52:20;7.82;;;4.18;;
48203;SDS011;33994;50.998;5.864;2024-01-30T04:55:25;7.78;;;4.55;;
48203;SDS011;33994;50.998;5.864;2024-01-30T04:58:28;7.55;;;4.35;;
48203;SDS011;33994;50.998;5.864;2024-01-30T05:01:31;7.70;;;4.60;;
48203;SDS011;33994;50.998;5.864;2024-01-30T05:04:35;7.05;;;3.88;;
48203;SDS011;33994;50.998;5.864;2024-01-30T05:07:38;6.88;;;3.85;;
48203;SDS011;33994;50.998;5.864;2024-01-30T05:10:45;9.23;;;4.65;;
48203;SDS011;33994;50.998;5.864;2024-01-30T05:13:48;7.05;;;4.28;;
48203;SDS011;33994;50.998;5.864;2024-01-30T05:16:51;8.75;;;4.80;;
48203;SDS011;33994;50.998;5.864;2024-01-30T05:19:54;9.18;;;4.45;;
48203;SDS011;33994;50.998;5.864;2024-01-30T05:22:57;7.53;;;4.30;;
48203;SDS011;33994;50.998;5.864;2024-01-30T05:26:02;9.60;;;4.65;;
48203;SDS011;33994;50.998;5.864;2024-01-30T05:29:05;9.38;;;4.85;;
48203;SDS011;33994;50.998;5.864;2024-01-30T05:32:09;10.10;;;5.32;;
48203;SDS011;33994;50.998;5.864;2024-01-30T05:35:12;6.88;;;4.22;;
48203;SDS011;33994;50.998;5.864;2024-01-30T05:38:15;8.85;;;4.82;;
48203;SDS011;33994;50.998;5.864;2024-01-30T05:41:20;6.60;;;4.68;;
48203;SDS011;33994;50.998;5.864;2024-01-30T05:44:23;7.55;;;4.28;;
48203;SDS011;33994;50.998;5.864;2024-01-30T05:47:26;9.27;;;5.03;;
48203;SDS011;33994;50.998;5.864;2024-01-30T05:50:29;9.70;;;4.45;;
48203;SDS011;33994;50.998;5.864;2024-01-30T05:53:32;8.07;;;4.80;;
48203;SDS011;33994;50.998;5.864;2024-01-30T05:56:37;9.18;;;4.50;;
48203;SDS011;33994;50.998;5.864;2024-01-30T05:59:40;10.85;;;4.60;;
48203;SDS011;33994;50.998;5.864;2024-01-30T06:02:43;8.07;;;4.30;;
48203;SDS011;33994;50.998;5.864;2024-01-30T06:05:47;9.63;;;4.70;;
48203;SDS011;33994;50.998;5.864;2024-01-30T06:08:50;7.32;;;4.05;;
48203;SDS011;33994;50.998;5.864;2024-01-30T06:11:55;7.05;;;5.13;;
48203;SDS011;33994;50.998;5.864;2024-01-30T06:14:57;10.73;;;4.93;;
48203;SDS011;33994;50.998;5.864;2024-01-30T06:18:01;9.73;;;4.45;;
48203;SDS011;33994;50.998;5.864;2024-01-30T06:21:04;6.15;;;4.10;;
48203;SDS011;33994;50.998;5.864;2024-01-30T06:24:08;7.10;;;4.35;;
48203;SDS011;33994;50.998;5.864;2024-01-30T06:27:12;10.90;;;4.80;;
48203;SDS011;33994;50.998;5.864;2024-01-30T06:30:16;9.40;;;4.80;;
48203;SDS011;33994;50.998;5.864;2024-01-30T06:33:19;7.68;;;4.80;;
48203;SDS011;33994;50.998;5.864;2024-01-30T06:36:22;9.50;;;4.30;;
48203;SDS011;33994;50.998;5.864;2024-01-30T06:39:25;10.45;;;5.15;;
48203;SDS011;33994;50.998;5.864;2024-01-30T06:42:31;11.00;;;4.70;;
48203;SDS011;33994;50.998;5.864;2024-01-30T06:45:34;9.93;;;4.75;;
48203;SDS011;33994;50.998;5.864;2024-01-30T06:48:38;9.00;;;4.78;;
48203;SDS011;33994;50.998;5.864;2024-01-30T06:51:41;9.52;;;5.03;;
48203;SDS011;33994;50.998;5.864;2024-01-30T06:54:44;6.38;;;4.50;;
48203;SDS011;33994;50.998;5.864;2024-01-30T06:57:49;6.30;;;4.60;;
48203;SDS011;33994;50.998;5.864;2024-01-30T07:00:52;7.47;;;5.15;;
48203;SDS011;33994;50.998;5.864;2024-01-30T07:03:55;7.65;;;4.60;;
48203;SDS011;33994;50.998;5.864;2024-01-30T07:06:58;7.22;;;4.47;;
48203;SDS011;33994;50.998;5.864;2024-01-30T07:10:01;8.65;;;4.97;;
48203;SDS011;33994;50.998;5.864;2024-01-30T07:13:06;7.53;;;4.47;;
48203;SDS011;33994;50.998;5.864;2024-01-30T07:16:09;7.18;;;4.18;;
48203;SDS011;33994;50.998;5.864;2024-01-30T07:19:12;7.43;;;4.93;;
48203;SDS011;33994;50.998;5.864;2024-01-30T07:22:15;11.32;;;5.03;;
48203;SDS011;33994;50.998;5.864;2024-01-30T07:25:18;7.93;;;4.93;;
48203;SDS011;33994;50.998;5.864;2024-01-30T07:28:23;9.10;;;5.30;;
48203;SDS011;33994;50.998;5.864;2024-01-30T07:31:26;10.27;;;5.03;;
48203;SDS011;33994;50.998;5.864;2024-01-30T07:34:29;7.97;;;5.18;;
48203;SDS011;33994;50.998;5.864;2024-01-30T07:37:32;8.88;;;5.15;;
48203;SDS011;33994;50.998;5.864;2024-01-30T07:40:36;10.82;;;5.25;;
48203;SDS011;33994;50.998;5.864;2024-01-30T07:43:40;10.18;;;4.95;;
48203;SDS011;33994;50.998;5.864;2024-01-30T07:46:46;9.35;;;4.93;;
48203;SDS011;33994;50.998;5.864;2024-01-30T07:49:49;6.95;;;4.82;;
48203;SDS011;33994;50.998;5.864;2024-01-30T07:52:52;9.00;;;4.90;;
48203;SDS011;33994;50.998;5.864;2024-01-30T07:55:55;7.10;;;4.90;;
48203;SDS011;33994;50.998;5.864;2024-01-30T07:59:00;8.25;;;5.03;;
48203;SDS011;33994;50.998;5.864;2024-01-30T08:02:03;9.82;;;4.82;;
48203;SDS011;33994;50.998;5.864;2024-01-30T08:05:06;7.45;;;4.97;;
48203;SDS011;33994;50.998;5.864;2024-01-30T08:08:10;10.35;;;4.45;;
48203;SDS011;33994;50.998;5.864;2024-01-30T08:11:14;9.38;;;4.97;;
48203;SDS011;33994;50.998;5.864;2024-01-30T08:14:18;9.88;;;4.80;;
48203;SDS011;33994;50.998;5.864;2024-01-30T08:17:21;11.95;;;6.43;;
48203;SDS011;33994;50.998;5.864;2024-01-30T08:20:25;14.05;;;5.10;;
48203;SDS011;33994;50.998;5.864;2024-01-30T08:23:28;10.32;;;5.45;;
48203;SDS011;33994;50.998;5.864;2024-01-30T08:26:31;10.90;;;5.63;;
48203;SDS011;33994;50.998;5.864;2024-01-30T08:29:35;13.05;;;5.10;;
48203;SDS011;33994;50.998;5.864;2024-01-30T08:32:38;12.77;;;5.90;;
48203;SDS011;33994;50.998;5.864;2024-01-30T08:35:41;13.25;;;5.32;;
48203;SDS011;33994;50.998;5.864;2024-01-30T08:38:44;12.50;;;6.72;;
48203;SDS011;33994;50.998;5.864;2024-01-30T08:41:48;8.95;;;5.65;;
48203;SDS011;33994;50.998;5.864;2024-01-30T08:44:52;12.07;;;5.07;;
48203;SDS011;33994;50.998;5.864;2024-01-30T08:47:55;13.35;;;6.40;;
48203;SDS011;33994;50.998;5.864;2024-01-30T08:50:59;12.02;;;6.05;;
48203;SDS011;33994;50.998;5.864;2024-01-30T08:54:02;11.05;;;6.00;;
48203;SDS011;33994;50.998;5.864;2024-01-30T08:57:05;14.18;;;5.95;;
48203;SDS011;33994;50.998;5.864;2024-01-30T09:00:10;11.27;;;5.50;;
48203;SDS011;33994;50.998;5.864;2024-01-30T09:03:14;14.45;;;6.20;;
48203;SDS011;33994;50.998;5.864;2024-01-30T09:06:17;14.80;;;6.15;;
48203;SDS011;33994;50.998;5.864;2024-01-30T09:09:20;12.18;;;5.65;;
48203;SDS011;33994;50.998;5.864;2024-01-30T09:12:23;10.55;;;5.47;;
48203;SDS011;33994;50.998;5.864;2024-01-30T09:15:28;13.10;;;6.40;;
48203;SDS011;33994;50.998;5.864;2024-01-30T09:18:31;12.75;;;6.03;;
48203;SDS011;33994;50.998;5.864;2024-01-30T09:21:34;12.20;;;6.25;;
48203;SDS011;33994;50.998;5.864;2024-01-30T09:24:38;14.88;;;6.65;;
48203;SDS011;33994;50.998;5.864;2024-01-30T09:27:41;15.52;;;6.85;;
48203;SDS011;33994;50.998;5.864;2024-01-30T09:30:46;10.38;;;5.75;;
48203;SDS011;33994;50.998;5.864;2024-01-30T09:33:49;15.75;;;6.00;;
48203;SDS011;33994;50.998;5.864;2024-01-30T09:36:52;11.60;;;7.63;;
48203;SDS011;33994;50.998;5.864;2024-01-30T09:39:55;17.77;;;6.28;;
48203;SDS011;33994;50.998;5.864;2024-01-30T09:42:58;10.65;;;6.20;;
48203;SDS011;33994;50.998;5.864;2024-01-30T09:46:03;12.88;;;6.18;;
48203;SDS011;33994;50.998;5.864;2024-01-30T09:49:08;10.18;;;5.78;;
48203;SDS011;33994;50.998;5.864;2024-01-30T09:52:12;15.43;;;6.78;;
48203;SDS011;33994;50.998;5.864;2024-01-30T09:55:15;14.10;;;5.68;;
48203;SDS011;33994;50.998;5.864;2024-01-30T09:58:18;11.93;;;6.82;;
48203;SDS011;33994;50.998;5.864;2024-01-30T10:01:23;13.05;;;5.53;;
48203;SDS011;33994;50.998;5.864;2024-01-30T10:04:26;16.70;;;6.00;;
48203;SDS011;33994;50.998;5.864;2024-01-30T10:07:29;11.60;;;5.78;;
48203;SDS011;33994;50.998;5.864;2024-01-30T10:10:32;14.20;;;5.82;;
48203;SDS011;33994;50.998;5.864;2024-01-30T10:13:36;11.18;;;6.10;;
48203;SDS011;33994;50.998;5.864;2024-01-30T10:16:40;17.02;;;5.57;;
48203;SDS011;33994;50.998;5.864;2024-01-30T10:19:43;14.05;;;6.45;;
48203;SDS011;33994;50.998;5.864;2024-01-30T10:22:46;17.85;;;6.40;;
48203;SDS011;33994;50.998;5.864;2024-01-30T10:25:50;13.20;;;5.75;;
48203;SDS011;33994;50.998;5.864;2024-01-30T10:28:53;11.38;;;5.47;;
48203;SDS011;33994;50.998;5.864;2024-01-30T10:31:59;13.27;;;6.05;;
48203;SDS011;33994;50.998;5.864;2024-01-30T10:35:02;19.15;;;6.57;;
48203;SDS011;33994;50.998;5.864;2024-01-30T10:38:06;14.98;;;5.72;;
48203;SDS011;33994;50.998;5.864;2024-01-30T10:41:13;13.23;;;6.00;;
48203;SDS011;33994;50.998;5.864;2024-01-30T10:44:22;13.73;;;6.68;;
48203;SDS011;33994;50.998;5.864;2024-01-30T10:47:27;14.13;;;6.05;;
48203;SDS011;33994;50.998;5.864;2024-01-30T10:50:30;13.25;;;6.75;;
48203;SDS011;33994;50.998;5.864;2024-01-30T10:53:35;25.83;;;7.97;;
48203;SDS011;33994;50.998;5.864;2024-01-30T10:56:39;12.30;;;6.22;;
48203;SDS011;33994;50.998;5.864;2024-01-30T10:59:43;11.27;;;5.43;;
48203;SDS011;33994;50.998;5.864;2024-01-30T11:02:49;13.95;;;6.15;;
48203;SDS011;33994;50.998;5.864;2024-01-30T11:05:52;13.38;;;5.78;;
48203;SDS011;33994;50.998;5.864;2024-01-30T11:09:01;16.33;;;6.82;;
48203;SDS011;33994;50.998;5.864;2024-01-30T11:12:05;12.30;;;5.43;;
48203;SDS011;33994;50.998;5.864;2024-01-30T11:15:15;19.60;;;7.10;;
48203;SDS011;33994;50.998;5.864;2024-01-30T11:18:26;11.40;;;6.20;;
48203;SDS011;33994;50.998;5.864;2024-01-30T11:21:32;13.93;;;6.93;;
48203;SDS011;33994;50.998;5.864;2024-01-30T11:24:41;15.38;;;6.53;;
48203;SDS011;33994;50.998;5.864;2024-01-30T11:27:44;15.35;;;6.63;;
48203;SDS011;33994;50.998;5.864;2024-01-30T11:30:49;19.70;;;8.00;;
48203;SDS011;33994;50.998;5.864;2024-01-30T11:33:54;14.20;;;6.72;;
48203;SDS011;33994;50.998;5.864;2024-01-30T11:36:59;16.23;;;7.20;;
48203;SDS011;33994;50.998;5.864;2024-01-30T11:40:06;14.70;;;6.63;;
48203;SDS011;33994;50.998;5.864;2024-01-30T11:43:11;15.68;;;7.85;;
48203;SDS011;33994;50.998;5.864;2024-01-30T11:46:14;14.13;;;6.65;;
48203;SDS011;33994;50.998;5.864;2024-01-30T11:49:21;17.42;;;6.90;;
48203;SDS011;33994;50.998;5.864;2024-01-30T11:52:24;17.67;;;7.50;;
48203;SDS011;33994;50.998;5.864;2024-01-30T11:55:28;13.82;;;6.88;;
48203;SDS011;33994;50.998;5.864;2024-01-30T11:58:32;15.02;;;6.80;;
48203;SDS011;33994;50.998;5.864;2024-01-30T12:01:35;14.10;;;6.75;;
48203;SDS011;33994;50.998;5.864;2024-01-30T12:04:40;13.95;;;7.28;;
48203;SDS011;33994;50.998;5.864;2024-01-30T12:07:43;16.55;;;7.10;;
48203;SDS011;33994;50.998;5.864;2024-01-30T12:10:54;14.02;;;7.25;;
48203;SDS011;33994;50.998;5.864;2024-01-30T12:13:58;14.05;;;7.57;;
48203;SDS011;33994;50.998;5.864;2024-01-30T12:17:01;15.23;;;8.25;;
48203;SDS011;33994;50.998;5.864;2024-01-30T12:20:06;17.23;;;8.10;;
48203;SDS011;33994;50.998;5.864;2024-01-30T12:23:11;15.13;;;7.78;;
48203;SDS011;33994;50.998;5.864;2024-01-30T12:26:15;19.38;;;7.95;;
48203;SDS011;33994;50.998;5.864;2024-01-30T12:29:19;14.85;;;8.40;;
48203;SDS011;33994;50.998;5.864;2024-01-30T12:32:23;21.17;;;8.73;;
48203;SDS011;33994;50.998;5.864;2024-01-30T12:35:27;19.75;;;8.90;;
48203;SDS011;33994;50.998;5.864;2024-01-30T12:38:31;16.02;;;8.35;;
48203;SDS011;33994;50.998;5.864;2024-01-30T12:41:34;13.73;;;7.88;;
48203;SDS011;33994;50.998;5.864;2024-01-30T12:44:37;16.25;;;8.27;;
48203;SDS011;33994;50.998;5.864;2024-01-30T12:47:41;18.42;;;8.57;;
48203;SDS011;33994;50.998;5.864;2024-01-30T12:50:45;19.75;;;8.35;;
48203;SDS011;33994;50.998;5.864;2024-01-30T12:53:49;17.75;;;8.13;;
48203;SDS011;33994;50.998;5.864;2024-01-30T12:56:52;12.00;;;7.07;;
48203;SDS011;33994;50.998;5.864;2024-01-30T12:59:55;22.52;;;8.27;;
48203;SDS011;33994;50.998;5.864;2024-01-30T13:02:58;14.75;;;7.35;;
48203;SDS011;33994;50.998;5.864;2024-01-30T13:06:03;15.75;;;8.18;;
48203;SDS011;33994;50.998;5.864;2024-01-30T13:09:06;21.40;;;8.13;;
48203;SDS011;33994;50.998;5.864;2024-01-30T13:12:09;15.80;;;8.13;;
48203;SDS011;33994;50.998;5.864;2024-01-30T13:15:13;14.85;;;8.25;;
48203;SDS011;33994;50.998;5.864;2024-01-30T13:18:16;15.57;;;8.43;;
48203;SDS011;33994;50.998;5.864;2024-01-30T13:21:20;18.23;;;8.07;;
48203;SDS011;33994;50.998;5.864;2024-01-30T13:24:23;13.70;;;8.18;;
48203;SDS011;33994;50.998;5.864;2024-01-30T13:27:26;18.60;;;8.10;;
48203;SDS011;33994;50.998;5.864;2024-01-30T13:30:30;15.00;;;7.28;;
48203;SDS011;33994;50.998;5.864;2024-01-30T13:33:33;15.45;;;7.53;;
48203;SDS011;33994;50.998;5.864;2024-01-30T13:36:37;13.00;;;7.43;;
48203;SDS011;33994;50.998;5.864;2024-01-30T13:39:40;21.25;;;8.45;;
48203;SDS011;33994;50.998;5.864;2024-01-30T13:42:43;15.98;;;7.68;;
48203;SDS011;33994;50.998;5.864;2024-01-30T13:45:46;15.23;;;7.65;;
48203;SDS011;33994;50.998;5.864;2024-01-30T13:48:50;14.88;;;7.20;;
48203;SDS011;33994;50.998;5.864;2024-01-30T13:51:55;9.07;;;5.72;;
48203;SDS011;33994;50.998;5.864;2024-01-30T13:54:58;13.43;;;4.93;;
48203;SDS011;33994;50.998;5.864;2024-01-30T13:58:01;10.18;;;3.90;;
48203;SDS011;33994;50.998;5.864;2024-01-30T14:01:04;7.80;;;3.75;;
48203;SDS011;33994;50.998;5.864;2024-01-30T14:04:07;9.50;;;3.72;;
48203;SDS011;33994;50.998;5.864;2024-01-30T14:07:11;5.93;;;3.47;;
48203;SDS011;33994;50.998;5.864;2024-01-30T14:10:14;6.32;;;3.20;;
48203;SDS011;33994;50.998;5.864;2024-01-30T14:13:17;7.63;;;3.00;;
48203;SDS011;33994;50.998;5.864;2024-01-30T14:16:20;8.02;;;2.53;;
48203;SDS011;33994;50.998;5.864;2024-01-30T14:19:24;8.02;;;2.50;;
48203;SDS011;33994;50.998;5.864;2024-01-30T14:22:28;8.02;;;2.40;;
48203;SDS011;33994;50.998;5.864;2024-01-30T14:25:31;5.32;;;1.88;;
48203;SDS011;33994;50.998;5.864;2024-01-30T14:28:34;7.13;;;2.03;;
48203;SDS011;33994;50.998;5.864;2024-01-30T14:31:38;6.05;;;2.55;;
48203;SDS011;33994;50.998;5.864;2024-01-30T14:34:41;4.80;;;1.73;;
48203;SDS011;33994;50.998;5.864;2024-01-30T14:37:45;8.57;;;1.75;;
48203;SDS011;33994;50.998;5.864;2024-01-30T14:40:49;5.50;;;1.70;;
48203;SDS011;33994;50.998;5.864;2024-01-30T14:43:52;5.60;;;1.55;;
48203;SDS011;33994;50.998;5.864;2024-01-30T14:46:55;3.20;;;1.27;;
48203;SDS011;33994;50.998;5.864;2024-01-30T14:49:58;4.60;;;1.40;;
48203;SDS011;33994;50.998;5.864;2024-01-30T14:53:03;6.28;;;1.60;;
48203;SDS011;33994;50.998;5.864;2024-01-30T14:56:07;2.53;;;1.08;;
48203;SDS011;33994;50.998;5.864;2024-01-30T14:59:10;3.45;;;1.60;;
48203;SDS011;33994;50.998;5.864;2024-01-30T15:02:13;3.85;;;1.42;;
48203;SDS011;33994;50.998;5.864;2024-01-30T15:05:16;2.22;;;1.10;;
48203;SDS011;33994;50.998;5.864;2024-01-30T15:08:21;6.45;;;1.60;;
48203;SDS011;33994;50.998;5.864;2024-01-30T15:11:24;3.70;;;0.98;;
48203;SDS011;33994;50.998;5.864;2024-01-30T15:14:27;1.95;;;0.68;;
48203;SDS011;33994;50.998;5.864;2024-01-30T15:17:31;3.42;;;1.08;;
48203;SDS011;33994;50.998;5.864;2024-01-30T15:20:34;2.45;;;0.85;;
48203;SDS011;33994;50.998;5.864;2024-01-30T15:23:38;2.92;;;0.93;;
48203;SDS011;33994;50.998;5.864;2024-01-30T15:26:42;2.90;;;0.60;;
48203;SDS011;33994;50.998;5.864;2024-01-30T15:29:45;2.33;;;0.85;;
48203;SDS011;33994;50.998;5.864;2024-01-30T15:32:48;1.85;;;0.65;;
48203;SDS011;33994;50.998;5.864;2024-01-30T15:35:51;2.90;;;0.80;;
48203;SDS011;33994;50.998;5.864;2024-01-30T15:38:56;4.05;;;0.68;;
48203;SDS011;33994;50.998;5.864;2024-01-30T15:41:59;1.15;;;0.70;;
48203;SDS011;33994;50.998;5.864;2024-01-30T15:45:02;2.67;;;0.85;;
48203;SDS011;33994;50.998;5.864;2024-01-30T15:48:06;1.73;;;0.65;;
48203;SDS011;33994;50.998;5.864;2024-01-30T15:51:10;3.25;;;0.80;;
48203;SDS011;33994;50.998;5.864;2024-01-30T15:54:14;1.77;;;0.90;;
48203;SDS011;33994;50.998;5.864;2024-01-30T15:57:17;5.88;;;0.93;;
48203;SDS011;33994;50.998;5.864;2024-01-30T16:00:21;2.97;;;1.08;;
48203;SDS011;33994;50.998;5.864;2024-01-30T16:03:24;5.15;;;0.80;;
48203;SDS011;33994;50.998;5.864;2024-01-30T16:06:27;3.60;;;1.30;;
48203;SDS011;33994;50.998;5.864;2024-01-30T16:09:32;5.25;;;1.20;;
48203;SDS011;33994;50.998;5.864;2024-01-30T16:12:35;7.13;;;0.95;;
48203;SDS011;33994;50.998;5.864;2024-01-30T16:15:38;4.43;;;0.82;;
48203;SDS011;33994;50.998;5.864;2024-01-30T16:18:41;3.35;;;0.75;;
48203;SDS011;33994;50.998;5.864;2024-01-30T16:21:45;3.80;;;1.05;;
48203;SDS011;33994;50.998;5.864;2024-01-30T16:24:49;5.13;;;0.80;;
48203;SDS011;33994;50.998;5.864;2024-01-30T16:27:52;4.55;;;0.70;;
48203;SDS011;33994;50.998;5.864;2024-01-30T16:30:55;4.00;;;1.00;;
48203;SDS011;33994;50.998;5.864;2024-01-30T16:33:58;2.80;;;0.93;;
48203;SDS011;33994;50.998;5.864;2024-01-30T16:37:02;4.82;;;0.63;;
48203;SDS011;33994;50.998;5.864;2024-01-30T16:40:07;5.18;;;0.70;;
48203;SDS011;33994;50.998;5.864;2024-01-30T16:43:11;4.43;;;1.70;;
48203;SDS011;33994;50.998;5.864;2024-01-30T16:46:14;5.55;;;1.52;;
48203;SDS011;33994;50.998;5.864;2024-01-30T16:49:17;4.25;;;1.10;;
48203;SDS011;33994;50.998;5.864;2024-01-30T16:52:21;5.25;;;0.93;;
48203;SDS011;33994;50.998;5.864;2024-01-30T16:55:26;2.00;;;0.88;;
48203;SDS011;33994;50.998;5.864;2024-01-30T16:58:29;4.05;;;0.85;;
48203;SDS011;33994;50.998;5.864;2024-01-30T17:01:32;4.95;;;1.00;;
48203;SDS011;33994;50.998;5.864;2024-01-30T17:04:35;4.30;;;0.90;;
48203;SDS011;33994;50.998;5.864;2024-01-30T17:07:38;7.13;;;1.60;;
48203;SDS011;33994;50.998;5.864;2024-01-30T17:10:43;5.80;;;1.48;;
48203;SDS011;33994;50.998;5.864;2024-01-30T17:13:46;8.10;;;1.50;;
48203;SDS011;33994;50.998;5.864;2024-01-30T17:16:49;4.07;;;1.40;;
48203;SDS011;33994;50.998;5.864;2024-01-30T17:19:52;5.30;;;1.30;;
48203;SDS011;33994;50.998;5.864;2024-01-30T17:22:56;6.03;;;1.58;;
48203;SDS011;33994;50.998;5.864;2024-01-30T17:26:00;6.90;;;1.90;;
48203;SDS011;33994;50.998;5.864;2024-01-30T17:29:04;6.20;;;1.50;;
48203;SDS011;33994;50.998;5.864;2024-01-30T17:32:07;3.15;;;1.40;;
48203;SDS011;33994;50.998;5.864;2024-01-30T17:35:10;5.35;;;1.50;;
48203;SDS011;33994;50.998;5.864;2024-01-30T17:38:14;6.53;;;1.52;;
48203;SDS011;33994;50.998;5.864;2024-01-30T17:41:18;5.88;;;1.67;;
48203;SDS011;33994;50.998;5.864;2024-01-30T17:44:21;8.18;;;1.50;;
48203;SDS011;33994;50.998;5.864;2024-01-30T17:47:25;3.92;;;1.25;;
48203;SDS011;33994;50.998;5.864;2024-01-30T17:50:28;5.55;;;1.42;;
48203;SDS011;33994;50.998;5.864;2024-01-30T17:53:31;4.50;;;1.27;;
48203;SDS011;33994;50.998;5.864;2024-01-30T17:56:36;4.53;;;1.60;;
48203;SDS011;33994;50.998;5.864;2024-01-30T17:59:39;4.50;;;1.55;;
48203;SDS011;33994;50.998;5.864;2024-01-30T18:02:42;4.18;;;1.55;;
48203;SDS011;33994;50.998;5.864;2024-01-30T18:05:45;3.15;;;1.20;;
48203;SDS011;33994;50.998;5.864;2024-01-30T18:08:49;4.00;;;1.08;;
48203;SDS011;33994;50.998;5.864;2024-01-30T18:11:54;3.10;;;1.30;;
48203;SDS011;33994;50.998;5.864;2024-01-30T18:14:57;8.02;;;1.70;;
48203;SDS011;33994;50.998;5.864;2024-01-30T18:18:01;4.85;;;1.10;;